createdAt,value
2019-01-28T00:01:00.077Z,175.00
2019-01-28T00:03:28.246Z,172.40
2019-01-28T00:05:56.133Z,174.12
2019-01-28T00:08:23.888Z,177.15
2019-01-28T00:10:51.880Z,173.40
2019-01-28T00:13:19.814Z,171.62
2019-01-28T00:15:49.857Z,171.35
2019-01-28T00:18:20.817Z,184.48
2019-01-28T00:20:49.707Z,182.62
2019-01-28T00:23:17.647Z,180.15
2019-01-28T00:25:52.435Z,172.37
2019-01-28T00:28:20.452Z,169.77
2019-01-28T00:30:48.567Z,175.72
2019-01-28T00:33:16.488Z,172.70
2019-01-28T00:35:45.174Z,180.45
2019-01-28T00:38:13.045Z,177.00
2019-01-28T00:40:40.851Z,170.53
2019-01-28T00:43:09.767Z,184.05
2019-01-28T00:45:38.604Z,194.17
2019-01-28T00:48:07.486Z,185.25
2019-01-28T00:50:35.155Z,194.52
2019-01-28T00:53:03.779Z,195.77
2019-01-28T00:55:31.713Z,181.85
2019-01-28T00:57:59.717Z,191.20
2019-01-28T01:00:28.272Z,179.12
2019-01-28T01:02:57.458Z,186.57
2019-01-28T01:05:25.222Z,169.47
2019-01-28T01:07:58.214Z,171.37
2019-01-28T01:10:27.875Z,180.27
2019-01-28T01:12:55.546Z,191.37
2019-01-28T01:15:23.307Z,189.50
2019-01-28T01:17:51.012Z,199.68
2019-01-28T01:20:19.139Z,211.05
2019-01-28T01:22:48.157Z,237.63
2019-01-28T01:25:16.068Z,212.85
2019-01-28T01:27:43.879Z,197.35
2019-01-28T01:30:14.983Z,199.60
2019-01-28T01:32:43.895Z,203.30
2019-01-28T01:35:12.756Z,207.47
2019-01-28T01:37:40.702Z,194.35
2019-01-28T01:40:11.253Z,201.12
2019-01-28T01:42:39.473Z,197.50
2019-01-28T01:45:09.234Z,196.35
2019-01-28T01:47:37.048Z,178.95
2019-01-28T01:50:06.902Z,174.32
2019-01-28T01:52:35.011Z,146.75
2019-01-28T01:55:05.107Z,166.35
2019-01-28T01:57:33.506Z,138.43
2019-01-28T02:00:06.979Z,142.00
2019-01-28T02:02:36.202Z,142.70
2019-01-28T02:05:05.690Z,152.22
2019-01-28T02:07:34.290Z,138.22
2019-01-28T02:10:03.780Z,135.15
2019-01-28T02:12:32.157Z,131.20
2019-01-28T02:15:01.997Z,127.30
2019-01-28T02:17:30.347Z,133.27
2019-01-28T02:20:00.676Z,120.37
2019-01-28T02:22:28.951Z,128.82
2019-01-28T02:24:57.322Z,117.45
2019-01-28T02:27:25.505Z,122.00
2019-01-28T02:29:53.791Z,112.12
2019-01-28T02:32:22.056Z,130.82
2019-01-28T02:34:51.985Z,122.30
2019-01-28T02:37:20.251Z,137.55
2019-01-28T02:39:48.621Z,116.03
2019-01-28T02:42:16.708Z,134.87
2019-01-28T02:44:45.028Z,131.15
2019-01-28T02:47:15.406Z,126.87
2019-01-28T02:49:44.115Z,131.05
2019-01-28T02:52:11.812Z,129.85
2019-01-28T02:54:41.891Z,125.55
2019-01-28T02:57:09.688Z,116.90
2019-01-28T02:59:37.376Z,121.50
2019-01-28T03:02:05.267Z,117.30
2019-01-28T03:04:32.962Z,113.08
2019-01-28T03:07:04.445Z,128.05
2019-01-28T03:09:34.888Z,120.70
2019-01-28T03:12:04.287Z,119.62
2019-01-28T03:14:32.490Z,117.35
2019-01-28T03:17:09.666Z,105.15
2019-01-28T03:19:38.952Z,110.35
2019-01-28T03:22:08.786Z,100.47
2019-01-28T03:24:37.142Z,98.00
2019-01-28T03:27:05.422Z,98.72
2019-01-28T03:29:34.535Z,110.05
2019-01-28T03:32:03.166Z,82.92
2019-01-28T03:34:31.497Z,79.58
2019-01-28T03:36:59.782Z,88.85
2019-01-28T03:39:27.561Z,99.67
2019-01-28T03:41:56.643Z,96.63
2019-01-28T03:44:24.512Z,95.47
2019-01-28T03:46:52.330Z,109.03
2019-01-28T03:49:20.224Z,104.27
2019-01-28T03:51:52.074Z,94.17
2019-01-28T03:54:20.515Z,113.08
2019-01-28T03:56:49.515Z,123.35
2019-01-28T03:59:17.923Z,119.10
2019-01-28T04:01:48.668Z,106.78
2019-01-28T04:04:17.351Z,120.00
2019-01-28T04:06:46.470Z,119.70
2019-01-28T04:09:14.713Z,125.70
2019-01-28T04:11:42.945Z,116.47
2019-01-28T04:14:11.282Z,110.40
2019-01-28T04:16:39.994Z,118.53
2019-01-28T04:19:08.231Z,108.90
2019-01-28T04:21:36.501Z,94.30
2019-01-28T04:24:05.306Z,92.42
2019-01-28T04:26:33.783Z,90.53
2019-01-28T04:29:03.264Z,90.65
2019-01-28T04:31:31.724Z,97.60
2019-01-28T04:33:59.504Z,111.35
2019-01-28T04:36:27.398Z,107.25
2019-01-28T04:38:56.839Z,97.70
2019-01-28T04:41:25.844Z,94.65
2019-01-28T04:43:53.841Z,101.20
2019-01-28T04:46:21.632Z,93.52
2019-01-28T04:48:55.742Z,108.97
2019-01-28T04:51:24.009Z,115.57
2019-01-28T04:53:53.053Z,133.47
2019-01-28T04:56:22.137Z,139.32
2019-01-28T04:58:50.023Z,124.70
2019-01-28T05:01:19.060Z,128.10
2019-01-28T05:03:46.971Z,130.97
2019-01-28T05:06:15.309Z,126.95
2019-01-28T05:08:44.009Z,124.53
2019-01-28T05:11:12.264Z,119.62
2019-01-28T05:13:40.552Z,111.65
2019-01-28T05:16:08.839Z,102.47
2019-01-28T05:18:37.153Z,107.15
2019-01-28T05:21:05.373Z,98.10
2019-01-28T05:23:33.180Z,93.78
2019-01-28T05:26:01.047Z,92.62
2019-01-28T05:28:28.929Z,84.37
2019-01-28T05:30:57.252Z,101.60
2019-01-28T05:33:24.966Z,102.70
2019-01-28T05:35:54.925Z,110.57
2019-01-28T05:38:23.676Z,104.43
2019-01-28T05:40:51.468Z,102.20
2019-01-28T05:43:19.144Z,101.75
2019-01-28T05:45:47.976Z,101.00
2019-01-28T05:48:15.948Z,113.88
2019-01-28T05:50:44.629Z,105.97
2019-01-28T05:53:12.527Z,94.00
2019-01-28T05:55:42.669Z,101.62
2019-01-28T05:58:10.416Z,100.82
2019-01-28T06:00:46.124Z,92.05
2019-01-28T06:03:14.423Z,104.10
2019-01-28T06:05:42.614Z,94.58
2019-01-28T06:08:10.547Z,100.05
2019-01-28T06:10:38.593Z,89.50
2019-01-28T06:13:06.600Z,102.42
2019-01-28T06:15:35.697Z,104.27
2019-01-28T06:18:04.160Z,102.40
2019-01-28T06:20:32.273Z,108.32
2019-01-28T06:23:00.012Z,103.72
2019-01-28T06:25:29.049Z,103.67
2019-01-28T06:27:56.784Z,109.97
2019-01-28T06:30:26.922Z,101.10
2019-01-28T06:32:55.351Z,100.15
2019-01-28T06:35:23.639Z,94.00
2019-01-28T06:37:52.947Z,110.57
2019-01-28T06:40:23.617Z,115.82
2019-01-28T06:42:55.335Z,118.72
2019-01-28T06:45:23.687Z,164.37
2019-01-28T06:47:52.317Z,216.00
2019-01-28T06:50:20.340Z,168.15
2019-01-28T06:52:49.869Z,130.95
2019-01-28T06:55:18.117Z,140.85
2019-01-28T06:57:45.959Z,129.75
2019-01-28T07:00:24.086Z,138.37
2019-01-28T07:02:52.754Z,167.07
2019-01-28T07:05:20.784Z,167.18
2019-01-28T07:07:49.242Z,143.35
2019-01-28T07:10:17.409Z,157.18
2019-01-28T07:12:45.710Z,183.27
2019-01-28T07:15:14.578Z,193.05
2019-01-28T07:17:42.378Z,185.80
2019-01-28T07:20:13.246Z,149.05
2019-01-28T07:22:41.094Z,168.05
2019-01-28T07:25:09.242Z,133.78
2019-01-28T07:27:38.033Z,125.40
2019-01-28T07:30:07.787Z,135.18
2019-01-28T07:32:36.389Z,131.82
2019-01-28T07:35:05.873Z,138.37
2019-01-28T07:37:35.377Z,142.20
2019-01-28T07:40:06.020Z,136.30
2019-01-28T07:42:34.380Z,138.05
2019-01-28T07:45:04.925Z,137.03
2019-01-28T07:47:33.732Z,152.30
2019-01-28T07:50:02.646Z,146.15
2019-01-28T07:52:31.541Z,167.43
2019-01-28T07:54:59.566Z,154.70
2019-01-28T07:57:27.283Z,170.77
2019-01-28T07:59:55.053Z,160.07
2019-01-28T08:02:22.928Z,136.77
2019-01-28T08:04:50.805Z,127.97
2019-01-28T08:07:18.481Z,128.53
2019-01-28T08:09:46.381Z,128.12
2019-01-28T08:12:14.446Z,122.55
2019-01-28T08:14:42.255Z,113.95
2019-01-28T08:17:10.190Z,107.58
2019-01-28T08:19:37.987Z,117.90
2019-01-28T08:22:06.011Z,110.22
2019-01-28T08:24:33.965Z,111.37
2019-01-28T08:27:03.914Z,97.33
2019-01-28T08:29:32.112Z,99.03
2019-01-28T08:32:01.183Z,90.65
2019-01-28T08:34:30.653Z,93.60
2019-01-28T08:37:00.984Z,94.97
2019-01-28T08:39:29.235Z,94.77
2019-01-28T08:41:57.556Z,90.85
2019-01-28T08:44:25.778Z,98.85
2019-01-28T08:46:55.334Z,89.45
2019-01-28T08:49:23.558Z,100.92
2019-01-28T08:51:52.251Z,91.87
2019-01-28T08:54:20.281Z,108.63
2019-01-28T08:56:49.190Z,98.35
2019-01-28T08:59:16.960Z,102.35
2019-01-28T09:01:45.772Z,96.87
2019-01-28T09:04:14.051Z,89.32
2019-01-28T09:06:45.093Z,98.97
2019-01-28T09:09:13.644Z,86.17
2019-01-28T09:11:41.779Z,92.27
2019-01-28T09:14:09.479Z,86.63
2019-01-28T09:16:37.246Z,84.13
2019-01-28T09:19:05.177Z,95.72
2019-01-28T09:21:33.195Z,90.55
2019-01-28T09:24:04.263Z,82.02
2019-01-28T09:26:32.089Z,77.97
2019-01-28T09:29:00.464Z,82.05
2019-01-28T09:31:28.335Z,83.75
2019-01-28T09:33:59.889Z,95.25
2019-01-28T09:36:27.815Z,90.42
2019-01-28T09:38:56.969Z,86.63
2019-01-28T09:41:25.085Z,87.27
2019-01-28T09:43:53.391Z,83.10
2019-01-28T09:46:21.910Z,84.13
2019-01-28T09:48:49.864Z,91.70
2019-01-28T09:51:18.729Z,80.38
2019-01-28T09:53:46.617Z,80.57
2019-01-28T09:56:14.511Z,81.12
2019-01-28T09:58:42.670Z,72.55
2019-01-28T10:01:10.489Z,68.87
2019-01-28T10:03:38.271Z,74.40
2019-01-28T10:06:06.240Z,73.33
2019-01-28T10:08:33.917Z,66.33
2019-01-28T10:11:02.046Z,72.35
2019-01-28T10:13:30.957Z,58.33
2019-01-28T10:15:59.010Z,55.20
2019-01-28T10:18:26.683Z,50.48
2019-01-28T10:20:54.467Z,54.03
2019-01-28T10:23:22.516Z,51.92
2019-01-28T10:25:51.214Z,58.68
2019-01-28T10:28:19.027Z,58.15
2019-01-28T10:30:48.363Z,62.73
2019-01-28T10:33:16.579Z,61.68
2019-01-28T10:35:45.191Z,59.63
2019-01-28T10:38:13.206Z,57.10
2019-01-28T10:40:43.261Z,62.93
2019-01-28T10:43:11.466Z,53.87
2019-01-28T10:45:39.570Z,48.75
2019-01-28T10:48:08.718Z,43.58
2019-01-28T10:50:37.480Z,45.58
2019-01-28T10:53:05.600Z,44.58
2019-01-28T10:55:33.556Z,45.50
2019-01-28T10:58:03.617Z,37.50
2019-01-28T11:00:34.831Z,36.88
2019-01-28T11:03:03.817Z,33.60
2019-01-28T11:05:33.237Z,34.27
2019-01-28T11:08:01.202Z,40.25
2019-01-28T11:10:29.766Z,38.65
2019-01-28T11:12:59.543Z,36.65
2019-01-28T11:15:28.512Z,40.90
2019-01-28T11:17:58.327Z,40.83
2019-01-28T11:20:26.713Z,42.73
2019-01-28T11:22:54.801Z,40.40
2019-01-28T11:25:25.072Z,31.35
2019-01-28T11:27:54.304Z,32.63
2019-01-28T11:30:27.887Z,36.80
2019-01-28T11:32:55.631Z,37.40
2019-01-28T11:35:24.104Z,32.80
2019-01-28T11:37:56.278Z,25.85
2019-01-28T11:40:24.384Z,27.95
2019-01-28T11:42:52.459Z,31.42
2019-01-28T11:45:26.281Z,26.20
2019-01-28T11:47:54.309Z,30.55
2019-01-28T11:50:22.836Z,26.07
2019-01-28T11:52:51.219Z,29.77
2019-01-28T11:55:22.203Z,26.85
2019-01-28T11:57:51.228Z,33.53
2019-01-28T12:00:30.072Z,30.10
2019-01-28T12:02:57.817Z,28.12
2019-01-28T12:05:25.989Z,26.73
2019-01-28T12:07:54.854Z,27.65
2019-01-28T12:10:23.106Z,22.42
2019-01-28T12:12:51.127Z,26.37
2019-01-28T12:15:22.787Z,31.33
2019-01-28T12:17:50.582Z,28.10
2019-01-28T12:20:20.190Z,28.38
2019-01-28T12:22:48.188Z,32.90
2019-01-28T12:25:16.505Z,32.50
2019-01-28T12:27:47.979Z,29.18
2019-01-28T12:30:20.245Z,32.48
2019-01-28T12:32:48.929Z,34.63
2019-01-28T12:35:17.520Z,27.62
2019-01-28T12:37:45.601Z,35.03
2019-01-28T12:40:14.985Z,30.45
2019-01-28T12:42:43.247Z,32.00
2019-01-28T12:45:14.756Z,29.85
2019-01-28T12:47:42.622Z,31.68
2019-01-28T12:50:10.982Z,30.15
2019-01-28T12:52:38.806Z,31.20
2019-01-28T12:55:10.086Z,35.33
2019-01-28T12:57:37.809Z,32.63
2019-01-28T13:00:08.596Z,36.77
2019-01-28T13:02:36.550Z,34.75
2019-01-28T13:05:06.346Z,30.90
2019-01-28T13:07:34.260Z,31.17
2019-01-28T13:10:05.351Z,33.53
2019-01-28T13:12:34.080Z,30.15
2019-01-28T13:15:05.703Z,38.15
2019-01-28T13:17:33.516Z,34.70
2019-01-28T13:20:01.321Z,55.83
2019-01-28T13:22:29.291Z,41.20
2019-01-28T13:24:59.239Z,39.98
2019-01-28T13:27:27.111Z,32.53
2019-01-28T13:29:54.868Z,37.83
2019-01-28T13:32:22.740Z,38.98
2019-01-28T13:34:51.450Z,37.75
2019-01-28T13:37:19.333Z,37.05
2019-01-28T13:39:47.170Z,39.85
2019-01-28T13:42:15.354Z,33.63
2019-01-28T13:44:46.721Z,40.60
2019-01-28T13:47:14.995Z,38.23
2019-01-28T13:49:42.786Z,37.33
2019-01-28T13:52:11.226Z,35.20
2019-01-28T13:54:39.724Z,33.65
2019-01-28T13:57:07.597Z,32.78
2019-01-28T13:59:35.425Z,34.78
2019-01-28T14:02:04.620Z,33.28
2019-01-28T14:04:32.437Z,28.32
2019-01-28T14:07:02.829Z,34.33
2019-01-28T14:09:30.574Z,38.15
2019-01-28T14:11:58.271Z,30.95
2019-01-28T14:14:26.773Z,29.55
2019-01-28T14:16:54.598Z,33.38
2019-01-28T14:19:22.387Z,29.50
2019-01-28T14:21:50.205Z,36.40
2019-01-28T14:24:19.636Z,33.18
2019-01-28T14:26:49.674Z,33.25
2019-01-28T14:29:17.531Z,39.00
2019-01-28T14:31:45.479Z,35.10
2019-01-28T14:34:13.358Z,35.75
2019-01-28T14:36:41.291Z,35.35
2019-01-28T14:39:13.678Z,41.83
2019-01-28T14:41:40.955Z,36.25
2019-01-28T14:44:08.990Z,36.93
2019-01-28T14:46:36.677Z,33.75
2019-01-28T14:49:05.477Z,35.40
2019-01-28T14:51:33.316Z,33.67
2019-01-28T14:54:05.417Z,39.20
2019-01-28T14:56:33.612Z,37.78
2019-01-28T14:59:01.518Z,38.15
2019-01-28T15:01:29.231Z,34.70
2019-01-28T15:03:57.127Z,40.60
2019-01-28T15:06:25.140Z,32.25
2019-01-28T15:08:53.234Z,39.35
2019-01-28T15:11:21.724Z,38.15
2019-01-28T15:13:51.450Z,35.08
2019-01-28T15:16:19.375Z,40.52
2019-01-28T15:18:50.149Z,35.78
2019-01-28T15:21:19.181Z,45.78
2019-01-28T15:23:49.110Z,37.42
2019-01-28T15:26:17.266Z,41.68
2019-01-28T15:28:47.323Z,38.23
2019-01-28T15:31:15.199Z,40.58
2019-01-28T15:33:43.875Z,47.08
2019-01-28T15:36:12.557Z,43.75
2019-01-28T15:38:40.274Z,36.42
2019-01-28T15:41:08.286Z,45.92
2019-01-28T15:43:36.127Z,36.55
2019-01-28T15:46:04.257Z,44.50
2019-01-28T15:48:32.732Z,37.67
2019-01-28T15:51:02.347Z,44.30
2019-01-28T15:53:31.045Z,45.08
2019-01-28T15:56:00.894Z,49.00
2019-01-28T15:58:28.651Z,46.10
2019-01-28T16:00:56.335Z,46.28
2019-01-28T16:03:24.985Z,51.05
2019-01-28T16:05:55.963Z,46.28
2019-01-28T16:08:23.810Z,44.73
2019-01-28T16:10:52.171Z,46.20
2019-01-28T16:13:19.968Z,107.03
2019-01-28T16:15:49.402Z,45.35
2019-01-28T16:18:17.410Z,67.00
2019-01-28T16:20:45.220Z,47.33
2019-01-28T16:23:13.401Z,50.38
2019-01-28T16:25:41.425Z,41.25
2019-01-28T16:28:09.184Z,50.43
2019-01-28T16:30:37.259Z,63.38
2019-01-28T16:33:05.944Z,53.25
2019-01-28T16:35:34.112Z,52.13
2019-01-28T16:38:04.134Z,48.25
2019-01-28T16:40:33.805Z,49.42
2019-01-28T16:43:04.505Z,45.95
2019-01-28T16:45:33.380Z,47.55
2019-01-28T16:48:02.702Z,48.52
2019-01-28T16:50:31.772Z,52.25
2019-01-28T16:53:00.372Z,51.55
2019-01-28T16:55:28.462Z,55.35
2019-01-28T16:57:57.298Z,49.38
2019-01-28T17:00:28.705Z,45.52
2019-01-28T17:02:57.194Z,50.90
2019-01-28T17:05:25.189Z,46.68
2019-01-28T17:07:53.194Z,49.08
2019-01-28T17:10:21.128Z,52.75
2019-01-28T17:12:49.285Z,48.87
2019-01-28T17:15:17.404Z,47.35
2019-01-28T17:17:46.089Z,52.23
2019-01-28T17:20:17.538Z,53.28
2019-01-28T17:22:45.310Z,53.50
2019-01-28T17:25:15.781Z,58.25
2019-01-28T17:27:43.606Z,52.53
2019-01-28T17:30:19.709Z,46.95
2019-01-28T17:32:47.509Z,49.03
2019-01-28T17:35:15.640Z,48.10
2019-01-28T17:37:43.459Z,47.78
2019-01-28T17:40:13.345Z,47.33
2019-01-28T17:42:45.304Z,50.12
2019-01-28T17:45:14.838Z,56.25
2019-01-28T17:47:42.821Z,44.05
2019-01-28T17:50:11.717Z,45.75
2019-01-28T17:52:39.765Z,45.95
2019-01-28T17:55:08.400Z,43.23
2019-01-28T17:57:37.556Z,36.33
2019-01-28T18:00:11.012Z,43.23
2019-01-28T18:02:42.448Z,44.33
2019-01-28T18:05:11.035Z,50.90
2019-01-28T18:07:39.159Z,47.65
2019-01-28T18:10:09.111Z,48.50
2019-01-28T18:12:39.442Z,49.30
2019-01-28T18:15:10.497Z,49.55
2019-01-28T18:17:38.494Z,46.75
2019-01-28T18:20:08.072Z,44.53
2019-01-28T18:22:42.825Z,45.30
2019-01-28T18:25:11.873Z,50.38
2019-01-28T18:27:42.077Z,48.48
2019-01-28T18:30:27.060Z,49.00
2019-01-28T18:32:55.189Z,46.80
2019-01-28T18:35:23.279Z,48.45
2019-01-28T18:37:50.966Z,50.98
2019-01-28T18:40:19.231Z,47.78
2019-01-28T18:42:46.976Z,52.85
2019-01-28T18:45:18.325Z,51.58
2019-01-28T18:47:45.177Z,52.95
2019-01-28T18:50:14.853Z,56.98
2019-01-28T18:52:45.480Z,55.45
2019-01-28T18:55:15.412Z,50.03
2019-01-28T18:57:43.512Z,64.75
2019-01-28T19:00:23.249Z,76.75
2019-01-28T19:02:51.582Z,60.00
2019-01-28T19:05:49.613Z,58.02
2019-01-28T19:08:46.019Z,63.30
2019-01-28T19:11:36.618Z,68.42
2019-01-28T19:14:23.982Z,67.42
2019-01-28T19:17:09.968Z,53.63
2019-01-28T19:19:55.995Z,55.67
2019-01-28T19:22:25.414Z,52.73
2019-01-28T19:24:54.159Z,49.90
2019-01-28T19:27:22.087Z,55.88
2019-01-28T19:29:49.976Z,50.50
2019-01-28T19:32:19.876Z,53.42
2019-01-28T19:34:47.634Z,49.05
2019-01-28T19:37:15.471Z,41.63
2019-01-28T19:39:43.873Z,41.30
2019-01-28T19:42:11.684Z,54.13
2019-01-28T19:44:39.598Z,59.55
2019-01-28T19:47:07.625Z,55.35
2019-01-28T19:49:35.315Z,51.65
2019-01-28T19:52:05.360Z,46.10
2019-01-28T19:54:33.197Z,46.40
2019-01-28T19:57:03.114Z,58.85
2019-01-28T19:59:30.871Z,63.52
2019-01-28T20:01:59.939Z,71.87
2019-01-28T20:04:27.892Z,61.23
2019-01-28T20:06:55.625Z,53.75
2019-01-28T20:09:23.638Z,53.73
2019-01-28T20:11:51.364Z,59.55
2019-01-28T20:14:20.654Z,50.83
2019-01-28T20:16:48.806Z,70.83
2019-01-28T20:19:20.376Z,70.32
2019-01-28T20:21:49.439Z,66.05
2019-01-28T20:24:17.169Z,63.42
2019-01-28T20:26:47.334Z,62.40
2019-01-28T20:29:20.195Z,70.35
2019-01-28T20:31:47.891Z,82.10
2019-01-28T20:34:16.960Z,71.72
2019-01-28T20:36:44.956Z,61.55
2019-01-28T20:39:12.743Z,73.92
2019-01-28T20:41:40.686Z,78.90
2019-01-28T20:44:08.399Z,88.12
2019-01-28T20:46:36.331Z,87.33
2019-01-28T20:49:04.729Z,82.75
2019-01-28T20:51:32.878Z,83.22
2019-01-28T20:54:04.311Z,79.25
2019-01-28T20:56:32.329Z,83.05
2019-01-28T20:59:00.985Z,83.05
2019-01-28T21:01:28.867Z,64.97
2019-01-28T21:03:56.696Z,60.35
2019-01-28T21:06:24.698Z,77.72
2019-01-28T21:08:54.138Z,79.35
2019-01-28T21:11:21.969Z,61.85
2019-01-28T21:13:49.836Z,67.62
2019-01-28T21:16:19.683Z,68.95
2019-01-28T21:18:47.593Z,54.42
2019-01-28T21:21:17.454Z,57.38
2019-01-28T21:23:45.528Z,55.45
2019-01-28T21:26:14.481Z,58.50
2019-01-28T21:28:43.647Z,53.00
2019-01-28T21:31:13.469Z,48.42
2019-01-28T21:33:41.781Z,51.85
2019-01-28T21:36:22.497Z,58.23
2019-01-28T21:38:51.925Z,61.92
2019-01-28T21:41:20.170Z,62.90
2019-01-28T21:43:47.979Z,61.42
2019-01-28T21:46:15.948Z,53.90
2019-01-28T21:48:44.920Z,67.03
2019-01-28T21:51:14.938Z,65.42
2019-01-28T21:53:43.953Z,60.70
2019-01-28T21:56:11.904Z,65.65
2019-01-28T21:58:40.055Z,60.15
2019-01-28T22:01:08.139Z,64.10
2019-01-28T22:03:36.321Z,70.83
2019-01-28T22:06:05.488Z,65.47
2019-01-28T22:08:33.157Z,56.10
2019-01-28T22:11:01.895Z,62.38
2019-01-28T22:13:30.959Z,62.83
2019-01-28T22:15:58.859Z,61.53
2019-01-28T22:18:27.095Z,56.88
2019-01-28T22:20:55.202Z,58.40
2019-01-28T22:23:23.201Z,57.58
2019-01-28T22:25:51.191Z,63.45
2019-01-28T22:28:18.982Z,54.00
2019-01-28T22:30:49.681Z,54.10
2019-01-28T22:33:19.372Z,62.08
2019-01-28T22:35:47.413Z,56.98
2019-01-28T22:38:15.501Z,51.13
2019-01-28T22:40:43.561Z,48.28
2019-01-28T22:43:11.549Z,51.28
2019-01-28T22:45:39.325Z,48.35
2019-01-28T22:48:09.300Z,47.30
2019-01-28T22:50:37.194Z,44.23
2019-01-28T22:53:05.251Z,52.05
2019-01-28T22:55:33.306Z,51.65
2019-01-28T22:58:01.025Z,44.25
2019-01-28T23:00:48.088Z,42.33
2019-01-28T23:03:17.265Z,44.13
2019-01-28T23:05:45.286Z,46.58
2019-01-28T23:08:17.812Z,38.85
2019-01-28T23:10:46.117Z,43.08
2019-01-28T23:13:15.016Z,45.43
2019-01-28T23:15:43.894Z,43.05
2019-01-28T23:18:12.007Z,47.33
2019-01-28T23:20:39.935Z,43.83
2019-01-28T23:23:08.159Z,43.78
2019-01-28T23:25:35.982Z,45.50
2019-01-28T23:28:05.349Z,40.30
2019-01-28T23:30:33.418Z,39.33
2019-01-28T23:33:02.301Z,44.30
2019-01-28T23:35:31.098Z,42.75
2019-01-28T23:38:00.165Z,41.08
2019-01-28T23:40:27.860Z,45.33
2019-01-28T23:43:02.056Z,40.38
2019-01-28T23:45:29.978Z,39.92
2019-01-28T23:47:57.811Z,40.48
2019-01-28T23:50:25.628Z,39.13
2019-01-28T23:52:53.535Z,34.78
2019-01-28T23:55:21.463Z,38.58
2019-01-28T23:57:56.634Z,29.15
